Time;durP1;ratioP1;P1;durP2;ratioP2;P2;SDS_P1;SDS_P2;PMS_P1;PMS_P2;Temp;Humidity;BMP_temperature;BMP_pressure;BME280_temperature;BME280_humidity;BME280_pressure;Samples;Min_cycle;Max_cycle;Signal;HPM_P1;HPM_P2
2024/02/25 00:01:24;;;;;;;11.48;5.53;;;;;;;;;;6169078;28;20050;-80
2024/02/25 00:04:25;;;;;;;7.45;4.65;;;;;;;;;;6176262;28;20381;-80
2024/02/25 00:07:27;;;;;;;8.13;4.20;;;;;;;;;;6184110;28;20062;-81
2024/02/25 00:10:29;;;;;;;6.68;4.38;;;;;;;;;;6183769;28;20047;-80
2024/02/25 00:13:31;;;;;;;8.15;4.18;;;;;;;;;;6178798;28;20057;-81
2024/02/25 00:16:35;;;;;;;9.75;4.85;;;;;;;;;;6181341;28;20049;-81
2024/02/25 00:19:36;;;;;;;11.13;4.40;;;;;;;;;;6184325;28;20051;-80
2024/02/25 00:22:38;;;;;;;8.30;3.70;;;;;;;;;;6184835;28;20047;-78
2024/02/25 00:25:40;;;;;;;10.43;4.13;;;;;;;;;;6181727;28;20094;-81
2024/02/25 00:28:42;;;;;;;11.70;4.43;;;;;;;;;;6175117;28;20050;-81
2024/02/25 00:31:43;;;;;;;8.95;4.35;;;;;;;;;;6179522;28;20053;-79
2024/02/25 00:34:45;;;;;;;8.27;4.30;;;;;;;;;;6183063;28;20070;-79
2024/02/25 00:37:47;;;;;;;8.32;4.20;;;;;;;;;;6175502;28;20047;-81
2024/02/25 00:40:49;;;;;;;9.27;4.40;;;;;;;;;;6182701;28;20043;-81
2024/02/25 00:44:01;;;;;;;8.80;3.72;;;;;;;;;;6179935;28;20090;-79
2024/02/25 00:47:03;;;;;;;9.18;4.10;;;;;;;;;;6179088;28;20652;-78
2024/02/25 00:50:05;;;;;;;9.77;3.80;;;;;;;;;;6203047;28;20045;-78
2024/02/25 00:53:07;;;;;;;10.67;5.23;;;;;;;;;;6197397;28;20050;-81
2024/02/25 00:56:09;;;;;;;8.32;4.93;;;;;;;;;;6157246;28;20470;-81
2024/02/25 00:59:10;;;;;;;8.77;4.40;;;;;;;;;;6182863;28;20498;-78
2024/02/25 01:02:12;;;;;;;9.18;4.38;;;;;;;;;;6177945;28;20053;-82
2024/02/25 01:05:15;;;;;;;7.55;4.20;;;;;;;;;;6182135;28;20061;-81
2024/02/25 01:08:17;;;;;;;7.25;4.35;;;;;;;;;;6196381;28;20042;-79
2024/02/25 01:11:18;;;;;;;7.88;4.88;;;;;;;;;;6179591;28;20082;-81
2024/02/25 01:14:20;;;;;;;9.32;4.78;;;;;;;;;;6176402;28;20045;-80
2024/02/25 01:17:22;;;;;;;8.13;4.60;;;;;;;;;;6177095;28;20043;-82
2024/02/25 01:20:24;;;;;;;9.43;4.35;;;;;;;;;;6192837;28;20046;-82
2024/02/25 01:23:25;;;;;;;9.27;4.80;;;;;;;;;;6180916;28;20249;-79
2024/02/25 01:26:27;;;;;;;6.82;4.05;;;;;;;;;;6181031;28;20568;-81
2024/02/25 01:29:29;;;;;;;6.50;3.80;;;;;;;;;;6181961;28;20042;-81
2024/02/25 01:32:31;;;;;;;6.15;3.20;;;;;;;;;;6175405;28;20059;-82
2024/02/25 01:35:33;;;;;;;7.65;3.67;;;;;;;;;;6175820;28;20071;-80
2024/02/25 01:38:34;;;;;;;5.75;3.45;;;;;;;;;;6180552;28;20053;-81
2024/02/25 01:41:36;;;;;;;5.88;3.15;;;;;;;;;;6180084;28;20505;-81
2024/02/25 01:44:57;;;;;;;6.72;3.15;;;;;;;;;;6184285;28;20086;-79
2024/02/25 01:48:00;;;;;;;6.03;3.10;;;;;;;;;;6176928;28;20054;-81
2024/02/25 01:51:03;;;;;;;6.15;3.00;;;;;;;;;;6180243;28;20038;-79
2024/02/25 01:54:05;;;;;;;6.45;3.20;;;;;;;;;;6180848;28;20046;-79
2024/02/25 01:57:07;;;;;;;5.68;3.72;;;;;;;;;;6189968;28;20078;-78
2024/02/25 02:00:09;;;;;;;6.47;3.17;;;;;;;;;;6177569;28;20038;-80
2024/02/25 02:03:11;;;;;;;7.30;3.25;;;;;;;;;;6173631;28;20137;-80
2024/02/25 02:06:13;;;;;;;6.13;2.97;;;;;;;;;;6180770;28;20057;-82
2024/02/25 02:09:15;;;;;;;6.05;2.75;;;;;;;;;;6178865;28;20054;-81
2024/02/25 02:12:17;;;;;;;5.38;3.15;;;;;;;;;;6172094;28;20141;-81
2024/02/25 02:15:19;;;;;;;5.78;3.17;;;;;;;;;;6180218;28;20409;-81
2024/02/25 02:18:20;;;;;;;4.55;2.53;;;;;;;;;;6182775;28;20064;-80
2024/02/25 02:21:25;;;;;;;4.97;2.53;;;;;;;;;;6191301;28;20086;-80
2024/02/25 02:24:26;;;;;;;4.88;2.60;;;;;;;;;;6181285;28;20042;-80
2024/02/25 02:27:28;;;;;;;4.97;3.40;;;;;;;;;;6172821;28;20042;-79
2024/02/25 02:30:30;;;;;;;3.78;2.67;;;;;;;;;;6166539;28;20058;-81
2024/02/25 02:33:31;;;;;;;5.15;2.72;;;;;;;;;;6177775;28;20074;-80
2024/02/25 02:36:33;;;;;;;5.82;3.20;;;;;;;;;;6180776;28;20640;-81
2024/02/25 02:39:37;;;;;;;3.78;2.40;;;;;;;;;;6181589;28;20054;-79
2024/02/25 02:42:39;;;;;;;3.00;2.45;;;;;;;;;;6192093;28;20078;-80
2024/02/25 02:45:41;;;;;;;3.92;2.22;;;;;;;;;;6177711;28;20135;-80
2024/02/25 02:48:42;;;;;;;2.63;2.13;;;;;;;;;;6177113;28;20053;-81
2024/02/25 02:51:44;;;;;;;3.13;1.75;;;;;;;;;;6186904;28;20043;-81
2024/02/25 02:54:46;;;;;;;3.53;1.90;;;;;;;;;;6178317;28;20072;-78
2024/02/25 02:57:48;;;;;;;2.58;1.98;;;;;;;;;;6201904;28;20053;-77
2024/02/25 03:00:50;;;;;;;4.57;2.53;;;;;;;;;;6187446;28;20058;-78
2024/02/25 03:03:52;;;;;;;5.75;3.28;;;;;;;;;;6188914;28;20046;-81
2024/02/25 03:06:54;;;;;;;4.90;2.90;;;;;;;;;;6192526;28;20065;-79
2024/02/25 03:09:56;;;;;;;3.97;2.63;;;;;;;;;;6204092;28;20070;-80
2024/02/25 03:12:58;;;;;;;6.53;2.70;;;;;;;;;;6186983;28;21007;-79
2024/02/25 03:16:03;;;;;;;5.32;2.97;;;;;;;;;;6193304;28;20049;-80
2024/02/25 03:19:04;;;;;;;5.05;2.88;;;;;;;;;;6210870;28;20046;-77
2024/02/25 03:22:07;;;;;;;5.90;3.70;;;;;;;;;;6197091;28;20042;-81
2024/02/25 03:25:08;;;;;;;5.32;3.20;;;;;;;;;;6183357;28;20140;-80
2024/02/25 03:28:11;;;;;;;6.45;2.92;;;;;;;;;;6184471;28;21750;-81
2024/02/25 03:31:13;;;;;;;4.57;2.47;;;;;;;;;;6182000;28;20046;-80
2024/02/25 03:34:14;;;;;;;3.35;2.13;;;;;;;;;;6202016;28;20097;-81
2024/02/25 03:37:17;;;;;;;3.10;2.10;;;;;;;;;;6190062;28;20053;-80
2024/02/25 03:40:19;;;;;;;3.05;2.13;;;;;;;;;;6183805;28;20136;-81
2024/02/25 03:43:21;;;;;;;4.60;2.13;;;;;;;;;;6155205;28;20054;-81
2024/02/25 03:46:22;;;;;;;4.32;2.47;;;;;;;;;;6179673;28;20821;-81
2024/02/25 03:49:24;;;;;;;6.30;2.17;;;;;;;;;;6186451;28;20097;-80
2024/02/25 03:52:26;;;;;;;4.55;2.88;;;;;;;;;;6185609;28;20049;-79
2024/02/25 03:55:29;;;;;;;4.30;2.30;;;;;;;;;;6188505;28;20054;-81
2024/02/25 03:58:31;;;;;;;3.72;2.40;;;;;;;;;;6164917;28;20058;-80
2024/02/25 04:01:32;;;;;;;4.00;2.42;;;;;;;;;;6176025;28;20137;-79
2024/02/25 04:04:34;;;;;;;3.60;2.28;;;;;;;;;;6184616;28;20057;-80
2024/02/25 04:07:35;;;;;;;3.20;1.92;;;;;;;;;;6191056;28;20133;-83
2024/02/25 04:10:37;;;;;;;4.28;2.30;;;;;;;;;;6183165;28;20517;-79
2024/02/25 04:13:39;;;;;;;3.42;1.90;;;;;;;;;;6182092;28;20133;-80
2024/02/25 04:16:42;;;;;;;5.47;2.38;;;;;;;;;;6186264;28;20051;-80
2024/02/25 04:19:43;;;;;;;5.28;2.45;;;;;;;;;;6181561;28;20067;-80
2024/02/25 04:22:45;;;;;;;3.42;2.55;;;;;;;;;;6185022;28;20046;-81
2024/02/25 04:25:46;;;;;;;5.30;2.80;;;;;;;;;;6184168;28;20053;-81
2024/02/25 04:28:48;;;;;;;8.57;2.58;;;;;;;;;;6178588;28;20054;-79
2024/02/25 04:31:50;;;;;;;5.60;2.45;;;;;;;;;;6179170;28;20057;-79
2024/02/25 04:34:51;;;;;;;5.38;2.63;;;;;;;;;;6185065;28;20120;-80
2024/02/25 04:37:53;;;;;;;5.72;3.40;;;;;;;;;;6185457;28;20046;-80
2024/02/25 04:40:57;;;;;;;4.50;2.83;;;;;;;;;;6180191;28;20123;-82
2024/02/25 04:43:58;;;;;;;4.95;2.58;;;;;;;;;;6178614;28;20109;-80
2024/02/25 04:47:00;;;;;;;5.38;2.72;;;;;;;;;;6190374;28;20057;-79
2024/02/25 04:50:03;;;;;;;3.97;2.50;;;;;;;;;;6167338;28;20065;-79
2024/02/25 04:53:05;;;;;;;3.47;2.43;;;;;;;;;;6182464;28;20066;-79
2024/02/25 04:56:07;;;;;;;5.90;2.75;;;;;;;;;;6177712;28;20077;-81
2024/02/25 04:59:09;;;;;;;4.82;2.78;;;;;;;;;;6183575;28;20539;-81
2024/02/25 05:02:11;;;;;;;5.53;2.40;;;;;;;;;;6197769;28;20038;-77
2024/02/25 05:05:13;;;;;;;5.35;2.80;;;;;;;;;;6203305;28;20054;-79
2024/02/25 05:08:15;;;;;;;4.97;2.60;;;;;;;;;;6173709;28;20054;-82
2024/02/25 05:11:16;;;;;;;5.47;2.30;;;;;;;;;;6182532;28;20121;-81
2024/02/25 05:14:18;;;;;;;5.15;2.15;;;;;;;;;;6179390;28;20046;-81
2024/02/25 05:17:20;;;;;;;3.55;1.92;;;;;;;;;;6156507;28;20054;-80
2024/02/25 05:20:22;;;;;;;2.28;1.77;;;;;;;;;;6182361;28;20120;-78
2024/02/25 05:23:24;;;;;;;2.35;1.50;;;;;;;;;;6182540;28;20050;-81
2024/02/25 05:26:25;;;;;;;2.92;1.33;;;;;;;;;;6166277;28;20053;-79
2024/02/25 05:29:27;;;;;;;4.28;1.70;;;;;;;;;;6195502;28;20046;-80
2024/02/25 05:32:29;;;;;;;3.35;1.40;;;;;;;;;;6178892;28;20741;-81
2024/02/25 05:35:31;;;;;;;4.10;1.45;;;;;;;;;;6180247;28;20180;-80
2024/02/25 05:38:33;;;;;;;1.80;1.50;;;;;;;;;;6180021;28;20057;-78
2024/02/25 05:41:34;;;;;;;1.70;1.40;;;;;;;;;;6179647;28;20046;-82
2024/02/25 05:44:36;;;;;;;2.65;1.80;;;;;;;;;;6180338;28;20054;-81
2024/02/25 05:47:38;;;;;;;2.22;1.63;;;;;;;;;;6182297;28;20141;-80
2024/02/25 05:50:40;;;;;;;2.30;1.88;;;;;;;;;;6181170;28;20129;-79
2024/02/25 05:53:41;;;;;;;4.07;1.83;;;;;;;;;;6181539;28;20050;-80
2024/02/25 05:56:43;;;;;;;3.25;1.88;;;;;;;;;;6181457;28;20538;-79
2024/02/25 05:59:48;;;;;;;3.28;1.80;;;;;;;;;;6179489;28;20042;-81
2024/02/25 06:02:49;;;;;;;2.65;1.80;;;;;;;;;;6181567;28;20687;-80
2024/02/25 06:05:56;;;;;;;4.70;2.15;;;;;;;;;;6179147;28;20045;-81
2024/02/25 06:08:58;;;;;;;2.80;2.17;;;;;;;;;;6181680;28;20504;-80
2024/02/25 06:12:03;;;;;;;3.15;1.85;;;;;;;;;;6179920;28;20100;-78
2024/02/25 06:15:12;;;;;;;3.30;1.95;;;;;;;;;;6187561;28;20120;-77
2024/02/25 06:18:14;;;;;;;3.50;2.28;;;;;;;;;;6204969;28;20034;-80
2024/02/25 06:21:16;;;;;;;4.63;2.13;;;;;;;;;;6178223;28;20058;-77
2024/02/25 06:24:18;;;;;;;5.40;2.22;;;;;;;;;;6181971;28;20048;-81
2024/02/25 06:27:20;;;;;;;2.92;2.00;;;;;;;;;;6182216;28;20532;-81
2024/02/25 06:30:21;;;;;;;2.65;2.10;;;;;;;;;;6185937;28;20646;-81
2024/02/25 06:33:23;;;;;;;3.35;2.22;;;;;;;;;;6186735;28;20038;-79
2024/02/25 06:36:28;;;;;;;3.70;2.40;;;;;;;;;;6184342;28;20046;-80
2024/02/25 06:39:30;;;;;;;4.07;2.45;;;;;;;;;;6184776;28;21089;-83
2024/02/25 06:42:32;;;;;;;3.50;2.65;;;;;;;;;;6166706;28;20046;-81
2024/02/25 06:45:35;;;;;;;2.72;2.30;;;;;;;;;;6182195;28;20053;-80
2024/02/25 06:48:37;;;;;;;4.25;2.88;;;;;;;;;;6184033;28;20516;-81
2024/02/25 06:51:39;;;;;;;2.95;2.42;;;;;;;;;;6186887;28;20120;-79
2024/02/25 06:54:41;;;;;;;4.18;2.28;;;;;;;;;;6186841;28;20181;-80
2024/02/25 06:57:43;;;;;;;3.30;2.10;;;;;;;;;;6169041;28;20058;-82
2024/02/25 07:00:47;;;;;;;3.33;2.33;;;;;;;;;;6184876;28;20065;-80
2024/02/25 07:03:49;;;;;;;3.97;2.38;;;;;;;;;;6185567;28;20046;-80
2024/02/25 07:06:51;;;;;;;4.15;2.17;;;;;;;;;;6188726;28;20181;-83
2024/02/25 07:09:56;;;;;;;3.65;2.55;;;;;;;;;;6196649;28;20046;-80
2024/02/25 07:12:58;;;;;;;4.43;2.92;;;;;;;;;;6198606;28;20034;-82
2024/02/25 07:16:02;;;;;;;13.52;6.95;;;;;;;;;;6190442;28;20083;-80
2024/02/25 07:19:04;;;;;;;9.50;5.82;;;;;;;;;;6191398;28;20046;-83
2024/02/25 07:22:06;;;;;;;8.18;4.78;;;;;;;;;;6185563;28;20053;-82
2024/02/25 07:25:07;;;;;;;25.38;9.07;;;;;;;;;;6187232;28;20055;-81
2024/02/25 07:28:09;;;;;;;7.32;4.57;;;;;;;;;;6196852;28;20050;-83
2024/02/25 07:31:17;;;;;;;12.70;5.78;;;;;;;;;;6183197;28;20050;-83
2024/02/25 07:34:19;;;;;;;5.80;2.72;;;;;;;;;;6186540;28;20065;-84
2024/02/25 07:37:22;;;;;;;4.60;2.83;;;;;;;;;;6191549;28;20050;-81
2024/02/25 07:40:26;;;;;;;8.52;3.63;;;;;;;;;;6189011;28;20049;-78
2024/02/25 07:43:27;;;;;;;5.35;3.25;;;;;;;;;;6172155;28;20054;-82
2024/02/25 07:46:29;;;;;;;3.40;2.45;;;;;;;;;;6188959;28;20050;-83
2024/02/25 07:49:31;;;;;;;7.32;3.83;;;;;;;;;;6188888;28;20070;-78
2024/02/25 07:52:32;;;;;;;3.17;2.60;;;;;;;;;;6203536;28;20102;-79
2024/02/25 07:55:35;;;;;;;3.67;2.20;;;;;;;;;;6182608;28;20050;-79
2024/02/25 07:58:37;;;;;;;10.43;4.23;;;;;;;;;;6184802;28;20748;-81
2024/02/25 08:01:39;;;;;;;3.22;2.50;;;;;;;;;;6182469;28;22266;-81
2024/02/25 08:04:40;;;;;;;5.05;3.20;;;;;;;;;;6197453;28;20554;-81
2024/02/25 08:07:45;;;;;;;5.63;4.15;;;;;;;;;;6208069;28;20046;-79
2024/02/25 08:10:47;;;;;;;2.50;1.90;;;;;;;;;;6203809;28;20030;-80
2024/02/25 08:13:48;;;;;;;2.33;1.70;;;;;;;;;;6197750;28;20039;-80
2024/02/25 08:16:50;;;;;;;2.95;2.35;;;;;;;;;;6215890;28;20050;-81
2024/02/25 08:19:52;;;;;;;3.08;2.13;;;;;;;;;;6201299;28;20042;-81
2024/02/25 08:22:54;;;;;;;3.42;1.70;;;;;;;;;;6202347;28;20054;-79
2024/02/25 08:25:55;;;;;;;4.95;2.72;;;;;;;;;;6201812;28;20035;-80
2024/02/25 08:28:57;;;;;;;2.53;1.63;;;;;;;;;;6195415;28;20043;-81
2024/02/25 08:31:58;;;;;;;17.00;9.38;;;;;;;;;;6205770;28;20070;-79
2024/02/25 08:35:00;;;;;;;2.88;2.30;;;;;;;;;;6203818;28;20042;-80
2024/02/25 08:38:02;;;;;;;3.80;2.25;;;;;;;;;;6202505;28;20073;-80
2024/02/25 08:41:04;;;;;;;3.83;2.13;;;;;;;;;;6216855;28;20026;-80
2024/02/25 08:44:05;;;;;;;3.20;2.20;;;;;;;;;;6199630;28;20090;-80
2024/02/25 08:47:07;;;;;;;2.67;2.03;;;;;;;;;;6200373;28;20081;-80
2024/02/25 08:50:09;;;;;;;4.45;3.20;;;;;;;;;;6201000;28;20054;-79
2024/02/25 08:53:11;;;;;;;2.30;1.80;;;;;;;;;;6198596;28;20054;-79
2024/02/25 08:56:13;;;;;;;2.43;2.23;;;;;;;;;;6183885;28;20069;-80
2024/02/25 08:59:15;;;;;;;3.85;2.20;;;;;;;;;;6212818;28;20058;-80
2024/02/25 09:02:16;;;;;;;4.22;3.03;;;;;;;;;;6184484;28;20046;-82
2024/02/25 09:05:18;;;;;;;4.22;2.25;;;;;;;;;;6174991;28;20459;-81
2024/02/25 09:08:22;;;;;;;3.70;2.08;;;;;;;;;;6182502;28;20057;-81
2024/02/25 09:11:25;;;;;;;3.63;2.30;;;;;;;;;;6180149;28;20108;-81
2024/02/25 09:14:28;;;;;;;3.83;2.67;;;;;;;;;;6175724;28;20046;-81
2024/02/25 09:17:30;;;;;;;2.58;1.90;;;;;;;;;;6190921;28;20054;-82
2024/02/25 09:20:33;;;;;;;2.58;1.63;;;;;;;;;;6189702;28;20069;-80
2024/02/25 09:23:35;;;;;;;2.60;1.80;;;;;;;;;;6180968;28;20058;-81
2024/02/25 09:26:37;;;;;;;2.15;1.25;;;;;;;;;;6178459;28;20072;-81
2024/02/25 09:29:41;;;;;;;2.40;1.85;;;;;;;;;;6180255;28;20057;-81
2024/02/25 09:32:42;;;;;;;4.13;1.83;;;;;;;;;;6178989;28;20694;-81
2024/02/25 09:35:44;;;;;;;4.28;2.20;;;;;;;;;;6170248;28;20042;-83
2024/02/25 09:38:46;;;;;;;2.03;1.50;;;;;;;;;;6185482;28;20053;-82
2024/02/25 09:41:54;;;;;;;4.75;2.70;;;;;;;;;;6177807;28;20493;-81
2024/02/25 09:44:56;;;;;;;1.77;1.65;;;;;;;;;;6166013;28;20057;-81
2024/02/25 09:48:01;;;;;;;3.10;1.88;;;;;;;;;;6186132;28;20534;-83
2024/02/25 09:51:07;;;;;;;2.17;1.50;;;;;;;;;;6183127;28;20046;-83
2024/02/25 09:54:10;;;;;;;2.90;1.65;;;;;;;;;;6182044;28;20056;-83
2024/02/25 09:57:11;;;;;;;1.83;1.20;;;;;;;;;;6177082;28;20106;-83
2024/02/25 10:00:13;;;;;;;2.40;1.50;;;;;;;;;;6184165;28;20097;-82
2024/02/25 10:03:15;;;;;;;2.05;1.75;;;;;;;;;;6184674;28;20058;-83
2024/02/25 10:06:17;;;;;;;2.45;1.50;;;;;;;;;;6195731;28;20488;-82
2024/02/25 10:09:32;;;;;;;1.73;1.30;;;;;;;;;;6184296;28;20047;-82
2024/02/25 10:12:39;;;;;;;3.33;1.52;;;;;;;;;;6183903;28;20126;-83
2024/02/25 10:15:41;;;;;;;4.53;1.90;;;;;;;;;;6197609;28;20050;-79
2024/02/25 10:18:43;;;;;;;16.35;5.07;;;;;;;;;;6210961;28;20405;-79
2024/02/25 10:21:46;;;;;;;9.35;3.00;;;;;;;;;;6211642;28;20034;-80
2024/02/25 10:24:48;;;;;;;;;;;;;;;;;;6175695;28;20054;-83
2024/02/25 10:27:50;;;;;;;4.93;3.72;;;;;;;;;;6144055;28;20488;-82
2024/02/25 10:31:04;;;;;;;6.45;3.75;;;;;;;;;;6166789;28;20046;-81
2024/02/25 10:34:06;;;;;;;15.63;8.00;;;;;;;;;;6184868;28;20050;-80
2024/02/25 10:37:08;;;;;;;5.57;3.47;;;;;;;;;;6168669;28;20428;-83
2024/02/25 10:40:11;;;;;;;7.38;3.88;;;;;;;;;;6183295;28;20061;-83
2024/02/25 10:43:14;;;;;;;2.85;1.50;;;;;;;;;;6176931;28;20070;-80
2024/02/25 10:46:31;;;;;;;2.78;1.35;;;;;;;;;;6184353;28;20058;-79
2024/02/25 10:49:35;;;;;;;1.70;1.08;;;;;;;;;;6185489;28;20050;-81
2024/02/25 10:52:37;;;;;;;1.10;0.90;;;;;;;;;;6181605;28;20053;-80
2024/02/25 10:55:42;;;;;;;1.73;1.30;;;;;;;;;;6181110;28;20042;-80
2024/02/25 10:58:46;;;;;;;2.55;1.27;;;;;;;;;;6181544;28;20492;-81
2024/02/25 11:01:50;;;;;;;2.38;1.55;;;;;;;;;;6179826;28;20592;-81
2024/02/25 11:04:52;;;;;;;3.90;2.40;;;;;;;;;;6183019;28;20412;-82
2024/02/25 11:07:57;;;;;;;2.28;1.70;;;;;;;;;;6185683;28;20398;-81
2024/02/25 11:10:59;;;;;;;1.30;0.93;;;;;;;;;;6168644;28;20106;-79
2024/02/25 11:14:01;;;;;;;0.73;0.70;;;;;;;;;;6179905;28;20063;-81
2024/02/25 11:17:03;;;;;;;0.80;0.77;;;;;;;;;;6185532;28;20088;-82
2024/02/25 11:20:11;;;;;;;1.10;0.80;;;;;;;;;;6180687;28;20061;-80
2024/02/25 11:23:17;;;;;;;1.48;0.77;;;;;;;;;;6187557;28;20472;-82
2024/02/25 11:26:34;;;;;;;1.00;0.80;;;;;;;;;;6187591;28;20046;-83
2024/02/25 11:29:36;;;;;;;1.15;1.00;;;;;;;;;;6192724;28;20089;-81
2024/02/25 11:32:40;;;;;;;2.20;1.10;;;;;;;;;;6197549;28;20046;-84
2024/02/25 11:35:45;;;;;;;0.85;0.85;;;;;;;;;;6184334;28;20054;-83
2024/02/25 11:38:47;;;;;;;0.80;0.80;;;;;;;;;;6175480;28;20540;-85
2024/02/25 11:41:51;;;;;;;2.35;0.90;;;;;;;;;;6174704;28;20050;-84
2024/02/25 11:44:53;;;;;;;1.42;0.82;;;;;;;;;;6181430;28;20073;-82
2024/02/25 11:47:54;;;;;;;1.00;0.90;;;;;;;;;;6164482;28;20061;-81
2024/02/25 11:50:56;;;;;;;0.52;0.50;;;;;;;;;;6178917;28;20133;-83
2024/02/25 11:53:58;;;;;;;1.35;1.02;;;;;;;;;;6161087;28;20051;-80
2024/02/25 11:57:00;;;;;;;2.90;0.70;;;;;;;;;;6168787;28;20046;-81
2024/02/25 12:00:02;;;;;;;3.65;1.38;;;;;;;;;;6173035;28;20053;-82
2024/02/25 12:03:06;;;;;;;8.65;2.95;;;;;;;;;;6173324;28;20046;-83
2024/02/25 12:06:08;;;;;;;;;;;;;;;;;;6162190;28;20450;-81
2024/02/25 12:09:16;;;;;;;4.80;2.03;;;;;;;;;;6177839;28;19932;-83
2024/02/25 12:12:18;;;;;;;2.50;1.27;;;;;;;;;;6172158;28;20074;-80
2024/02/25 12:15:25;;;;;;;3.67;1.50;;;;;;;;;;6179295;28;20053;-81
2024/02/25 12:18:28;;;;;;;5.40;2.00;;;;;;;;;;6174688;28;20058;-81
2024/02/25 12:21:30;;;;;;;1.65;0.93;;;;;;;;;;6173217;28;20875;-81
2024/02/25 12:24:33;;;;;;;0.65;0.65;;;;;;;;;;6179390;28;20200;-81
2024/02/25 12:27:35;;;;;;;2.78;1.63;;;;;;;;;;6175986;28;20062;-81
2024/02/25 12:30:38;;;;;;;1.45;1.20;;;;;;;;;;6172656;28;20086;-81
2024/02/25 12:33:39;;;;;;;1.90;0.73;;;;;;;;;;6174704;28;20061;-80
2024/02/25 12:36:44;;;;;;;1.08;0.80;;;;;;;;;;6176151;28;20120;-81
2024/02/25 12:39:47;;;;;;;2.25;1.17;;;;;;;;;;6173551;28;20106;-81
2024/02/25 12:42:52;;;;;;;0.93;0.52;;;;;;;;;;6175564;28;20436;-79
2024/02/25 12:45:55;;;;;;;2.72;1.10;;;;;;;;;;6172172;28;20137;-81
2024/02/25 12:48:56;;;;;;;3.63;1.90;;;;;;;;;;6176850;28;20050;-80
2024/02/25 12:51:59;;;;;;;0.82;0.77;;;;;;;;;;6179669;28;20101;-81
2024/02/25 12:55:02;;;;;;;0.85;0.85;;;;;;;;;;6180850;28;20057;-81
2024/02/25 12:58:04;;;;;;;2.83;0.65;;;;;;;;;;6178065;28;20050;-79
2024/02/25 13:01:06;;;;;;;0.70;0.70;;;;;;;;;;6175328;28;20050;-80
2024/02/25 13:04:09;;;;;;;0.82;0.80;;;;;;;;;;6175858;28;20050;-81
2024/02/25 13:07:11;;;;;;;1.15;1.02;;;;;;;;;;6177553;28;20054;-79
2024/02/25 13:10:13;;;;;;;2.47;0.90;;;;;;;;;;6178325;28;20108;-80
2024/02/25 13:13:14;;;;;;;0.80;0.80;;;;;;;;;;6169546;28;20047;-79
2024/02/25 13:16:16;;;;;;;0.43;0.43;;;;;;;;;;6177416;28;20061;-79
2024/02/25 13:19:18;;;;;;;2.22;0.60;;;;;;;;;;6176724;28;20050;-81
2024/02/25 13:22:21;;;;;;;0.93;0.73;;;;;;;;;;6183024;28;20042;-81
2024/02/25 13:25:23;;;;;;;0.77;0.68;;;;;;;;;;6179750;28;20595;-80
2024/02/25 13:28:25;;;;;;;2.38;0.90;;;;;;;;;;6174965;28;20055;-81
2024/02/25 13:31:27;;;;;;;0.50;0.50;;;;;;;;;;6179892;28;20050;-82
2024/02/25 13:34:28;;;;;;;2.85;1.00;;;;;;;;;;6183055;28;20535;-81
2024/02/25 13:37:31;;;;;;;1.70;1.17;;;;;;;;;;6186175;28;20093;-81
2024/02/25 13:40:32;;;;;;;4.20;1.77;;;;;;;;;;6179039;28;20111;-79
2024/02/25 13:43:37;;;;;;;3.22;1.90;;;;;;;;;;6199298;28;20054;-82
2024/02/25 13:46:38;;;;;;;5.30;2.63;;;;;;;;;;6188524;28;20054;-82
2024/02/25 13:49:40;;;;;;;2.33;1.10;;;;;;;;;;6188376;28;20049;-81
2024/02/25 13:52:42;;;;;;;2.55;1.40;;;;;;;;;;6184158;28;20124;-81
2024/02/25 13:55:44;;;;;;;2.15;1.17;;;;;;;;;;6170285;28;20050;-81
2024/02/25 13:58:46;;;;;;;1.83;1.55;;;;;;;;;;6176903;28;20054;-82
2024/02/25 14:01:48;;;;;;;2.78;1.20;;;;;;;;;;6184846;28;20110;-81
2024/02/25 14:04:50;;;;;;;1.85;1.30;;;;;;;;;;6160421;28;20050;-81
2024/02/25 14:07:53;;;;;;;1.65;1.00;;;;;;;;;;6187796;28;20043;-81
2024/02/25 14:10:55;;;;;;;1.08;0.98;;;;;;;;;;6175427;28;20054;-81
2024/02/25 14:13:57;;;;;;;1.13;0.88;;;;;;;;;;6168454;28;20057;-80
2024/02/25 14:16:58;;;;;;;0.93;0.88;;;;;;;;;;6205768;28;20046;-80
2024/02/25 14:20:00;;;;;;;1.33;0.88;;;;;;;;;;6197194;28;20050;-79
2024/02/25 14:23:03;;;;;;;1.02;0.90;;;;;;;;;;6194981;28;20056;-81
2024/02/25 14:26:05;;;;;;;1.10;0.90;;;;;;;;;;6181583;28;20084;-80
2024/02/25 14:29:07;;;;;;;2.35;0.93;;;;;;;;;;6186014;28;20464;-81
2024/02/25 14:32:09;;;;;;;1.23;0.90;;;;;;;;;;6184026;28;20054;-81
2024/02/25 14:35:13;;;;;;;2.25;0.68;;;;;;;;;;6184138;28;20050;-81
2024/02/25 14:38:15;;;;;;;1.15;0.68;;;;;;;;;;6184869;28;20047;-83
2024/02/25 14:41:17;;;;;;;0.75;0.70;;;;;;;;;;6178659;28;20055;-83
2024/02/25 14:44:19;;;;;;;1.80;1.15;;;;;;;;;;6174180;28;20082;-83
2024/02/25 14:47:21;;;;;;;1.02;0.60;;;;;;;;;;6188280;28;20046;-83
2024/02/25 14:50:23;;;;;;;1.20;0.60;;;;;;;;;;6186822;28;20147;-81
2024/02/25 14:53:26;;;;;;;1.63;0.70;;;;;;;;;;6188936;28;20053;-82
2024/02/25 14:56:28;;;;;;;1.73;0.70;;;;;;;;;;6186784;28;20097;-83
2024/02/25 14:59:29;;;;;;;1.77;0.80;;;;;;;;;;6189961;28;20067;-80
2024/02/25 15:02:31;;;;;;;0.82;0.80;;;;;;;;;;6188175;28;20046;-83
2024/02/25 15:05:32;;;;;;;1.30;0.80;;;;;;;;;;6187291;28;20043;-83
2024/02/25 15:08:35;;;;;;;0.95;0.90;;;;;;;;;;6190915;28;20042;-82
2024/02/25 15:11:36;;;;;;;1.58;0.68;;;;;;;;;;6187579;28;20053;-80
2024/02/25 15:14:38;;;;;;;3.17;0.80;;;;;;;;;;6190237;28;20051;-80
2024/02/25 15:17:40;;;;;;;3.30;1.40;;;;;;;;;;6186785;28;20061;-81
2024/02/25 15:20:43;;;;;;;4.95;2.13;;;;;;;;;;6180013;28;20118;-82
2024/02/25 15:23:46;;;;;;;3.15;1.10;;;;;;;;;;6184346;28;20405;-83
2024/02/25 15:26:48;;;;;;;1.20;0.38;;;;;;;;;;6172816;28;20956;-83
2024/02/25 15:29:52;;;;;;;6.82;2.92;;;;;;;;;;6183582;28;20057;-82
2024/02/25 15:32:54;;;;;;;0.65;0.60;;;;;;;;;;6179242;28;20058;-82
2024/02/25 15:35:56;;;;;;;1.33;1.05;;;;;;;;;;6180624;28;20042;-82
2024/02/25 15:38:59;;;;;;;1.13;1.02;;;;;;;;;;6182784;28;20043;-79
2024/02/25 15:42:02;;;;;;;6.03;3.03;;;;;;;;;;6198850;28;20078;-83
2024/02/25 15:45:04;;;;;;;10.57;6.13;;;;;;;;;;6177431;28;20061;-81
2024/02/25 15:48:06;;;;;;;2.03;1.07;;;;;;;;;;6181180;28;20046;-82
2024/02/25 15:51:08;;;;;;;1.55;1.27;;;;;;;;;;6185493;28;20440;-81
2024/02/25 15:54:22;;;;;;;1.58;1.30;;;;;;;;;;6192526;28;20085;-80
2024/02/25 15:57:24;;;;;;;1.48;1.08;;;;;;;;;;6188510;28;20047;-82
2024/02/25 16:00:25;;;;;;;1.95;0.70;;;;;;;;;;6188350;28;21435;-84
2024/02/25 16:03:27;;;;;;;2.63;0.70;;;;;;;;;;6184788;28;20101;-85
2024/02/25 16:06:29;;;;;;;3.53;1.50;;;;;;;;;;6185668;28;20045;-85
2024/02/25 16:09:34;;;;;;;2.15;0.90;;;;;;;;;;6193564;28;20089;-86
2024/02/25 16:12:35;;;;;;;1.58;0.77;;;;;;;;;;6176901;28;20478;-85
2024/02/25 16:15:38;;;;;;;2.15;1.30;;;;;;;;;;6162579;28;20053;-85
2024/02/25 16:18:39;;;;;;;1.48;1.00;;;;;;;;;;6179986;28;20120;-85
2024/02/25 16:21:41;;;;;;;1.67;0.93;;;;;;;;;;6169059;28;20137;-85
2024/02/25 16:24:43;;;;;;;2.45;1.30;;;;;;;;;;6176051;28;20058;-86
2024/02/25 16:27:45;;;;;;;4.65;4.25;;;;;;;;;;6176227;28;20093;-85
2024/02/25 16:30:47;;;;;;;1.40;1.30;;;;;;;;;;6179768;28;20046;-86
2024/02/25 16:33:49;;;;;;;2.05;1.50;;;;;;;;;;6177011;28;20083;-84
2024/02/25 16:36:52;;;;;;;1.52;1.38;;;;;;;;;;6185855;28;20500;-83
2024/02/25 16:39:53;;;;;;;3.67;2.40;;;;;;;;;;6176646;28;20046;-85
2024/02/25 16:42:55;;;;;;;5.40;3.88;;;;;;;;;;6168824;28;20122;-84
2024/02/25 16:45:57;;;;;;;3.35;2.13;;;;;;;;;;6177576;28;20101;-85
2024/02/25 16:48:58;;;;;;;2.25;1.00;;;;;;;;;;6178015;28;20501;-85
2024/02/25 16:52:00;;;;;;;2.67;1.50;;;;;;;;;;6176200;28;20058;-84
2024/02/25 16:55:03;;;;;;;2.22;1.70;;;;;;;;;;6174147;28;20085;-83
2024/02/25 16:58:05;;;;;;;4.80;2.30;;;;;;;;;;6158806;28;20046;-84
2024/02/25 17:01:07;;;;;;;2.30;1.60;;;;;;;;;;6155659;28;20046;-85
2024/02/25 17:04:09;;;;;;;3.60;3.05;;;;;;;;;;6177937;28;20424;-83
2024/02/25 17:07:13;;;;;;;8.38;5.20;;;;;;;;;;6170962;28;20132;-83
2024/02/25 17:10:14;;;;;;;10.55;6.35;;;;;;;;;;6174283;28;20678;-83
2024/02/25 17:13:16;;;;;;;8.32;3.90;;;;;;;;;;6175612;28;20537;-84
2024/02/25 17:16:18;;;;;;;10.63;4.15;;;;;;;;;;6193342;28;20550;-84
2024/02/25 17:19:21;;;;;;;11.10;4.70;;;;;;;;;;6178912;28;20051;-82
2024/02/25 17:22:23;;;;;;;6.60;2.67;;;;;;;;;;6166701;28;20859;-81
2024/02/25 17:25:25;;;;;;;9.93;4.20;;;;;;;;;;6151568;28;20062;-81
2024/02/25 17:28:29;;;;;;;16.30;7.88;;;;;;;;;;6166123;28;20539;-80
2024/02/25 17:31:33;;;;;;;12.05;4.93;;;;;;;;;;6175188;28;20042;-82
2024/02/25 17:34:34;;;;;;;6.38;3.20;;;;;;;;;;6176222;28;20517;-84
2024/02/25 17:37:36;;;;;;;12.75;8.13;;;;;;;;;;6172109;28;20049;-81
2024/02/25 17:40:38;;;;;;;9.57;6.07;;;;;;;;;;6175751;28;20042;-82
2024/02/25 17:43:43;;;;;;;10.57;5.95;;;;;;;;;;6171772;28;20126;-81
2024/02/25 17:46:45;;;;;;;14.57;7.45;;;;;;;;;;6169694;28;20430;-83
2024/02/25 17:49:48;;;;;;;13.98;6.72;;;;;;;;;;6169704;28;20094;-81
2024/02/25 17:52:52;;;;;;;;;;;;;;;;;;6189952;28;20053;-82
2024/02/25 17:55:56;;;;;;;7.45;5.10;;;;;;;;;;6174851;28;19926;-82
2024/02/25 17:58:58;;;;;;;10.15;5.95;;;;;;;;;;6170520;28;20093;-80
2024/02/25 18:02:00;;;;;;;7.32;4.97;;;;;;;;;;6182029;28;20046;-80
2024/02/25 18:05:02;;;;;;;6.63;4.15;;;;;;;;;;6192830;28;20050;-79
2024/02/25 18:08:04;;;;;;;5.63;3.63;;;;;;;;;;6194569;28;20073;-81
2024/02/25 18:11:06;;;;;;;7.85;5.50;;;;;;;;;;6169282;28;20042;-80
2024/02/25 18:14:12;;;;;;;6.25;4.10;;;;;;;;;;6181517;28;20057;-81